Fairview Cross Roads, North Carolina
Current Conditions -  °F | °C
As of 3:15 PM on Sunday 23 Nov 2014 (Local Time) from KMWK Reporting Station
Drizzle Drizzle  
Wind Chill: 46°   Ceiling: 1100
Heat Index: 46°   Visibility: 2mi
Dew Point: 43°   Wind: 0mph
Humidity: 91%   Direction: NA
Pressure: 30.02"   Gusts: NA
Location:  36.3461°N, 80.7011°W
Report Text: KMWK 232015Z AUTO 00000KT 2SM DZ OVC011 08/06 A3002 RMK AO2 T00770063
Loading
Personal Weather Stations






























Interactive Weather Map New forecast layout! Learn more

10-Day Weather Forecast

Advertisements
Track Severe Weather on mobile